createdAt,value
2019-01-11T00:00:32.746Z,2.49
2019-01-11T00:03:02.199Z,2.64
2019-01-11T00:05:31.748Z,2.61
2019-01-11T00:08:01.294Z,2.48
2019-01-11T00:10:30.731Z,2.46
2019-01-11T00:13:00.282Z,2.41
2019-01-11T00:15:30.990Z,2.40
2019-01-11T00:21:15.667Z,2.39
2019-01-11T00:24:25.340Z,2.34
2019-01-11T00:30:10.057Z,2.25
2019-01-11T00:32:39.467Z,2.20
2019-01-11T00:35:48.268Z,2.26
2019-01-11T00:41:31.910Z,2.34
2019-01-11T00:44:41.678Z,2.25
2019-01-11T00:47:50.812Z,2.14
2019-01-11T00:53:23.713Z,2.04
2019-01-11T00:59:08.127Z,1.89
2019-01-11T01:01:37.974Z,2.07
2019-01-11T01:04:07.324Z,2.14
2019-01-11T01:07:16.167Z,2.07
2019-01-11T01:09:45.506Z,1.99
2019-01-11T01:12:15.014Z,1.99
2019-01-11T01:15:24.064Z,1.87
2019-01-11T01:18:33.469Z,1.74
2019-01-11T01:21:42.154Z,1.70
2019-01-11T01:27:17.774Z,1.72
2019-01-11T01:32:53.618Z,1.71
2019-01-11T01:38:18.331Z,1.65
2019-01-11T01:40:47.714Z,1.68
2019-01-11T01:43:56.476Z,1.81
2019-01-11T01:49:28.367Z,1.78
2019-01-11T01:51:58.241Z,1.68
2019-01-11T01:54:48.446Z,1.59
2019-01-11T02:03:56.892Z,1.58
2019-01-11T02:09:41.240Z,1.54
2019-01-11T02:12:11.001Z,1.54
2019-01-11T02:14:40.582Z,1.47
2019-01-11T02:17:11.189Z,1.43
2019-01-11T02:19:40.568Z,1.46
2019-01-11T02:25:46.242Z,1.43
2019-01-11T02:28:16.018Z,1.38
2019-01-11T02:31:28.126Z,1.31
2019-01-11T02:40:01.551Z,1.32
2019-01-11T02:43:10.186Z,1.24
2019-01-11T02:46:19.209Z,1.27
2019-01-11T02:48:48.594Z,1.22
2019-01-11T02:51:37.449Z,1.17
2019-01-11T02:57:01.603Z,0.99
2019-01-11T03:02:48.491Z,1.10
2019-01-11T03:05:18.278Z,1.18
2019-01-11T03:07:48.125Z,1.17
2019-01-11T03:10:57.591Z,1.11
2019-01-11T03:13:27.942Z,1.01
2019-01-11T03:16:36.770Z,1.03
2019-01-11T03:25:21.847Z,0.89
2019-01-11T03:31:24.901Z,0.91
2019-01-11T03:36:55.855Z,1.02
2019-01-11T03:39:25.235Z,0.93
2019-01-11T03:42:06.057Z,1.00
2019-01-11T03:44:35.432Z,0.95
2019-01-11T03:47:04.903Z,0.91
2019-01-11T04:01:22.387Z,0.96
2019-01-11T04:07:01.034Z,0.98
2019-01-11T04:12:40.263Z,0.99
2019-01-11T04:15:30.560Z,0.97
2019-01-11T04:18:39.466Z,0.92
2019-01-11T04:30:00.960Z,0.88
2019-01-11T04:33:09.761Z,0.82
2019-01-11T04:36:19.086Z,0.86
2019-01-11T04:41:43.171Z,0.93
2019-01-11T04:44:52.064Z,0.98
2019-01-11T04:48:00.798Z,1.00
2019-01-11T04:56:21.751Z,1.09
2019-01-11T05:04:35.471Z,1.04
2019-01-11T05:07:04.881Z,1.13
2019-01-11T05:09:34.328Z,1.18
2019-01-11T05:18:02.044Z,1.16
2019-01-11T05:26:36.929Z,1.07
2019-01-11T05:29:06.332Z,1.11
2019-01-11T05:31:35.779Z,1.08
2019-01-11T05:34:05.436Z,1.14
2019-01-11T05:37:14.137Z,1.22
2019-01-11T05:42:39.462Z,1.32
2019-01-11T05:45:09.213Z,1.30
2019-01-11T05:47:38.565Z,1.35
2019-01-11T05:50:09.765Z,1.38
2019-01-11T05:52:39.917Z,1.35
2019-01-11T05:55:11.097Z,1.39
2019-01-11T05:57:53.597Z,1.39
2019-01-11T06:00:23.006Z,1.43
2019-01-11T06:03:31.994Z,1.43
2019-01-11T06:09:29.811Z,1.39
2019-01-11T06:20:44.778Z,1.34
2019-01-11T06:23:14.176Z,1.36
2019-01-11T06:25:43.646Z,1.32
2019-01-11T06:28:13.246Z,1.41
2019-01-11T06:30:42.625Z,1.35
2019-01-11T06:33:51.494Z,1.41
2019-01-11T06:39:46.158Z,1.49
2019-01-11T06:42:34.973Z,1.35
2019-01-11T06:45:23.880Z,1.47
2019-01-11T06:48:32.840Z,1.42
2019-01-11T06:51:02.324Z,1.53
2019-01-11T06:53:31.884Z,1.56
2019-01-11T06:56:01.863Z,1.65
2019-01-11T06:58:31.215Z,1.67
2019-01-11T07:01:00.840Z,1.71
2019-01-11T07:03:30.323Z,1.82
2019-01-11T07:05:59.727Z,1.89
2019-01-11T07:08:29.126Z,1.97
2019-01-11T07:10:58.713Z,2.03
2019-01-11T07:13:28.211Z,2.03
2019-01-11T07:15:57.637Z,2.05
2019-01-11T07:18:27.184Z,2.08
2019-01-11T07:20:56.591Z,2.14
2019-01-11T07:23:25.936Z,2.17
2019-01-11T07:25:55.370Z,2.19
2019-01-11T07:28:24.982Z,2.18
2019-01-11T07:31:11.925Z,2.20
2019-01-11T07:39:51.884Z,2.34
2019-01-11T07:43:01.580Z,2.43
2019-01-11T07:46:10.698Z,2.38
2019-01-11T07:48:40.076Z,2.23
2019-01-11T07:51:09.858Z,2.24
2019-01-11T07:53:39.277Z,2.24
2019-01-11T07:56:08.661Z,2.20
2019-01-11T07:58:38.133Z,2.13
2019-01-11T08:01:07.666Z,2.16
2019-01-11T08:07:25.673Z,2.32
2019-01-11T08:09:55.546Z,2.42
2019-01-11T08:12:24.991Z,2.46
2019-01-11T08:14:54.500Z,2.48
2019-01-11T08:17:23.882Z,2.51
2019-01-11T08:19:53.699Z,2.52
2019-01-11T08:22:37.047Z,2.56
2019-01-11T08:25:07.369Z,2.58
2019-01-11T08:27:36.845Z,2.58
2019-01-11T08:30:08.936Z,2.66
2019-01-11T08:32:38.311Z,2.66
2019-01-11T08:35:09.607Z,2.70
2019-01-11T08:37:39.122Z,2.69
2019-01-11T08:40:09.367Z,2.72
2019-01-11T08:43:18.237Z,2.76
2019-01-11T08:49:02.104Z,2.85
2019-01-11T08:51:31.741Z,2.83
2019-01-11T08:54:01.239Z,2.80
2019-01-11T08:56:31.017Z,2.82
2019-01-11T08:59:00.562Z,2.79
2019-01-11T09:04:27.833Z,2.78
2019-01-11T09:06:57.489Z,2.77
2019-01-11T09:10:06.421Z,2.75
2019-01-11T09:15:50.956Z,2.78
2019-01-11T09:18:59.860Z,2.79
2019-01-11T09:27:25.826Z,2.95
2019-01-11T09:30:34.473Z,2.98
2019-01-11T09:33:20.454Z,3.03
2019-01-11T09:41:53.909Z,3.11
2019-01-11T09:47:32.743Z,3.17
2019-01-11T09:53:17.217Z,3.28
2019-01-11T09:56:25.990Z,3.36
2019-01-11T10:04:42.005Z,3.58
2019-01-11T10:07:50.760Z,3.64
2019-01-11T10:10:20.352Z,3.65
2019-01-11T10:16:23.767Z,3.80
2019-01-11T10:22:06.361Z,3.81
2019-01-11T10:24:35.984Z,3.81
2019-01-11T10:30:38.398Z,3.78
2019-01-11T10:36:03.096Z,3.93
2019-01-11T10:39:11.776Z,3.97
2019-01-11T10:41:41.266Z,3.94
2019-01-11T10:47:30.397Z,3.93
2019-01-11T10:52:51.048Z,3.91
2019-01-11T10:55:21.291Z,3.94
2019-01-11T10:58:29.991Z,3.87
2019-01-11T11:04:28.053Z,3.91
2019-01-11T11:06:57.701Z,3.90
2019-01-11T11:10:06.667Z,3.96
2019-01-11T11:15:51.916Z,4.02
2019-01-11T11:21:34.667Z,4.02
2019-01-11T11:24:02.562Z,4.05
2019-01-11T11:26:32.160Z,4.07
2019-01-11T11:29:40.935Z,4.03
2019-01-11T11:35:19.845Z,4.08
2019-01-11T11:40:58.507Z,4.22
2019-01-11T11:52:25.086Z,4.34
2019-01-11T11:58:09.572Z,4.36
2019-01-11T12:01:18.482Z,4.31
2019-01-11T12:04:27.554Z,4.24
2019-01-11T12:10:14.491Z,4.26
2019-01-11T12:13:23.898Z,4.31
2019-01-11T12:15:54.707Z,3.89
2019-01-11T12:18:24.560Z,4.32
2019-01-11T12:20:54.326Z,4.31
2019-01-11T12:23:24.301Z,4.31
2019-01-11T12:25:54.084Z,4.30
2019-01-11T12:28:23.455Z,4.37
2019-01-11T12:30:52.866Z,4.36
2019-01-11T12:33:22.269Z,4.39
2019-01-11T12:35:51.702Z,4.31
2019-01-11T12:38:21.958Z,4.32
2019-01-11T12:40:51.857Z,4.23
2019-01-11T12:43:21.365Z,4.10
2019-01-11T12:45:50.791Z,4.07
2019-01-11T12:48:20.184Z,4.07
2019-01-11T12:50:49.684Z,4.04
2019-01-11T12:53:19.103Z,4.01
2019-01-11T12:55:48.553Z,3.99
2019-01-11T12:58:18.021Z,3.99
2019-01-11T13:00:47.576Z,3.95
2019-01-11T13:03:17.000Z,3.99
2019-01-11T13:05:46.464Z,3.99
2019-01-11T13:08:16.057Z,4.06
2019-01-11T13:10:45.424Z,4.02
2019-01-11T13:13:15.273Z,4.00
2019-01-11T13:15:45.073Z,3.96
2019-01-11T13:18:14.593Z,3.94
2019-01-11T13:20:44.003Z,4.03
2019-01-11T13:23:13.477Z,4.04
2019-01-11T13:25:42.878Z,4.05
2019-01-11T13:28:12.239Z,4.08
2019-01-11T13:30:41.697Z,4.05
2019-01-11T13:33:11.110Z,3.99
2019-01-11T13:35:40.498Z,3.98
2019-01-11T13:38:10.093Z,4.02
2019-01-11T13:40:39.588Z,4.05
2019-01-11T13:43:08.944Z,4.14
2019-01-11T13:45:39.182Z,4.17
2019-01-11T13:48:08.739Z,4.13
2019-01-11T13:50:42.510Z,4.18
2019-01-11T13:53:16.586Z,4.18
2019-01-11T13:55:46.076Z,4.14
2019-01-11T13:58:15.460Z,4.14
2019-01-11T14:00:45.023Z,4.13
2019-01-11T14:03:14.578Z,4.11
2019-01-11T14:05:44.357Z,4.05
2019-01-11T14:08:14.153Z,4.03
2019-01-11T14:10:43.669Z,3.98
2019-01-11T14:13:13.110Z,3.94
2019-01-11T14:15:42.911Z,3.90
2019-01-11T14:18:12.474Z,3.91
2019-01-11T14:20:41.911Z,3.88
2019-01-11T14:23:11.329Z,3.83
2019-01-11T14:25:41.116Z,3.74
2019-01-11T14:28:10.545Z,3.64
2019-01-11T14:30:41.071Z,3.67
2019-01-11T14:33:10.848Z,3.63
2019-01-11T14:35:40.247Z,3.67
2019-01-11T14:38:09.716Z,3.68
2019-01-11T14:40:41.425Z,3.67
2019-01-11T14:43:10.955Z,3.63
2019-01-11T14:45:40.380Z,3.59
2019-01-11T14:48:09.736Z,3.53
2019-01-11T14:50:39.290Z,3.56
2019-01-11T14:53:08.733Z,3.51
2019-01-11T14:55:38.234Z,3.48
2019-01-11T14:58:07.783Z,3.43
2019-01-11T15:00:37.209Z,3.43
2019-01-11T15:03:06.749Z,3.39
2019-01-11T15:05:36.095Z,3.32
2019-01-11T15:08:07.633Z,3.30
2019-01-11T15:10:37.267Z,3.27
2019-01-11T15:13:07.392Z,3.25
2019-01-11T15:15:37.046Z,3.21
2019-01-11T15:18:06.595Z,3.16
2019-01-11T15:20:36.431Z,3.12
2019-01-11T15:23:06.163Z,3.08
2019-01-11T15:25:36.039Z,3.03
2019-01-11T15:28:05.741Z,3.05
2019-01-11T15:30:35.115Z,3.09
2019-01-11T15:33:04.529Z,3.13
2019-01-11T15:35:33.947Z,3.03
2019-01-11T15:38:03.341Z,3.01
2019-01-11T15:40:36.547Z,2.98
2019-01-11T15:43:04.184Z,2.96
2019-01-11T15:45:33.616Z,2.95
2019-01-11T15:48:03.134Z,3.00
2019-01-11T15:50:56.385Z,2.97
2019-01-11T15:53:25.808Z,2.98
2019-01-11T15:55:58.211Z,2.90
2019-01-11T15:58:27.749Z,2.96
2019-01-11T16:00:57.339Z,2.96
2019-01-11T16:03:26.765Z,2.97
2019-01-11T16:06:26.930Z,2.97
2019-01-11T16:09:55.901Z,2.94
2019-01-11T16:12:28.038Z,2.80
2019-01-11T16:15:40.117Z,2.78
2019-01-11T16:18:13.998Z,2.87
2019-01-11T16:20:43.395Z,2.83
2019-01-11T16:23:12.861Z,2.79
2019-01-11T16:25:42.335Z,2.76
2019-01-11T16:28:11.961Z,2.67
2019-01-11T16:30:41.823Z,2.73
2019-01-11T16:33:11.304Z,2.69
2019-01-11T16:35:41.335Z,2.72
2019-01-11T16:38:10.807Z,2.72
2019-01-11T16:40:40.242Z,2.70
2019-01-11T16:43:09.757Z,2.67
2019-01-11T16:45:39.301Z,2.71
2019-01-11T16:48:08.751Z,2.72
2019-01-11T16:50:38.351Z,2.71
2019-01-11T16:53:07.778Z,2.66
2019-01-11T16:55:37.298Z,2.71
2019-01-11T16:58:06.810Z,2.73
2019-01-11T17:00:36.332Z,2.82
2019-01-11T17:03:06.110Z,2.86
2019-01-11T17:05:35.512Z,2.82
2019-01-11T17:08:04.951Z,2.90
2019-01-11T17:10:34.350Z,2.88
2019-01-11T17:13:03.919Z,2.88
2019-01-11T17:15:33.349Z,2.82
2019-01-11T17:18:02.792Z,2.81
2019-01-11T17:20:32.776Z,2.79
2019-01-11T17:23:02.463Z,2.89
2019-01-11T17:25:31.870Z,2.95
2019-01-11T17:28:01.307Z,2.93
2019-01-11T17:30:30.916Z,2.90
2019-01-11T17:33:00.345Z,2.89
2019-01-11T17:35:29.784Z,2.86
2019-01-11T17:37:59.217Z,2.83
2019-01-11T17:40:28.902Z,2.83
2019-01-11T17:42:58.661Z,2.76
2019-01-11T17:45:28.128Z,2.78
2019-01-11T17:47:57.575Z,2.82
2019-01-11T17:50:27.042Z,2.74
2019-01-11T17:53:00.011Z,2.70
2019-01-11T17:55:27.871Z,2.69
2019-01-11T17:57:57.316Z,2.67
2019-01-11T18:00:27.147Z,2.69
2019-01-11T18:02:56.754Z,2.66
2019-01-11T18:05:27.106Z,2.60
2019-01-11T18:07:56.522Z,2.63
2019-01-11T18:10:26.059Z,2.56
2019-01-11T18:12:55.507Z,2.49
2019-01-11T18:15:25.133Z,2.45
2019-01-11T18:17:54.615Z,2.47
2019-01-11T18:20:26.748Z,2.40
2019-01-11T18:22:56.304Z,2.37
2019-01-11T18:25:25.944Z,2.40
2019-01-11T18:27:56.728Z,2.49
2019-01-11T18:30:26.249Z,2.53
2019-01-11T18:32:55.732Z,2.46
2019-01-11T18:35:25.268Z,2.44
2019-01-11T18:37:54.785Z,2.47
2019-01-11T18:40:25.863Z,2.46
2019-01-11T18:42:55.299Z,2.41
2019-01-11T18:45:28.827Z,2.34
2019-01-11T18:47:56.383Z,2.27
2019-01-11T18:50:26.072Z,2.28
2019-01-11T18:52:55.640Z,2.25
2019-01-11T18:55:25.276Z,2.19
2019-01-11T18:57:54.987Z,2.19
2019-01-11T19:00:25.269Z,2.20
2019-01-11T19:02:54.872Z,2.21
2019-01-11T19:05:24.655Z,2.20
2019-01-11T19:07:54.909Z,2.12
2019-01-11T19:10:24.977Z,2.16
2019-01-11T19:12:54.475Z,2.19
2019-01-11T19:15:26.675Z,2.17
2019-01-11T19:17:56.318Z,2.11
2019-01-11T19:20:27.967Z,2.06
2019-01-11T19:22:57.588Z,2.10
2019-01-11T19:25:27.397Z,2.08
2019-01-11T19:27:56.789Z,2.16
2019-01-11T19:30:28.321Z,2.23
2019-01-11T19:32:57.950Z,2.29
2019-01-11T19:35:27.395Z,2.25
2019-01-11T19:37:59.292Z,2.18
2019-01-11T19:40:29.009Z,2.16
2019-01-11T19:42:58.519Z,2.13
2019-01-11T19:45:28.030Z,2.10
2019-01-11T19:47:57.984Z,2.07
2019-01-11T19:50:27.468Z,2.09
2019-01-11T19:52:57.084Z,2.06
2019-01-11T19:55:26.931Z,2.00
2019-01-11T19:57:56.514Z,2.01
2019-01-11T20:00:28.515Z,1.98
2019-01-11T20:02:58.660Z,2.00
2019-01-11T20:05:28.555Z,2.01
2019-01-11T20:07:58.290Z,1.95
2019-01-11T20:10:33.064Z,1.94
2019-01-11T20:13:03.108Z,1.98
2019-01-11T20:15:33.024Z,1.99
2019-01-11T20:18:03.252Z,1.91
2019-01-11T20:20:33.009Z,1.91
2019-01-11T20:23:02.930Z,1.93
2019-01-11T20:25:32.432Z,1.93
2019-01-11T20:28:02.043Z,1.87
2019-01-11T20:30:32.081Z,1.83
2019-01-11T20:33:01.803Z,1.85
2019-01-11T20:35:31.672Z,1.84
2019-01-11T20:38:01.434Z,1.83
2019-01-11T20:40:31.281Z,1.81
2019-01-11T20:43:00.979Z,1.85
2019-01-11T20:45:30.916Z,1.79
2019-01-11T20:48:00.732Z,1.80
2019-01-11T20:50:31.698Z,1.72
2019-01-11T20:53:01.473Z,1.73
2019-01-11T20:55:31.279Z,1.67
2019-01-11T20:58:01.216Z,1.64
2019-01-11T21:00:33.116Z,1.75
2019-01-11T21:03:04.860Z,1.75
2019-01-11T21:05:34.662Z,1.71
2019-01-11T21:08:04.633Z,1.72
2019-01-11T21:10:35.188Z,1.69
2019-01-11T21:13:05.123Z,1.71
2019-01-11T21:15:35.095Z,1.64
2019-01-11T21:18:05.311Z,1.62
2019-01-11T21:20:35.085Z,1.57
2019-01-11T21:23:04.985Z,1.58
2019-01-11T21:25:34.884Z,1.52
2019-01-11T21:28:04.786Z,1.52
2019-01-11T21:30:34.495Z,1.50
2019-01-11T21:33:04.223Z,1.49
2019-01-11T21:35:33.962Z,1.47
2019-01-11T21:38:04.000Z,1.41
2019-01-11T21:40:33.766Z,1.40
2019-01-11T21:43:03.397Z,1.35
2019-01-11T21:45:33.007Z,1.34
2019-01-11T21:48:02.574Z,1.27
2019-01-11T21:50:32.045Z,1.24
2019-01-11T21:53:01.512Z,1.27
2019-01-11T21:55:31.040Z,1.24
2019-01-11T21:58:01.653Z,1.18
2019-01-11T22:00:39.694Z,1.18
2019-01-11T22:03:12.762Z,1.18
2019-01-11T22:05:42.317Z,1.18
2019-01-11T22:08:11.768Z,1.15
2019-01-11T22:10:41.249Z,1.12
2019-01-11T22:13:10.738Z,1.11
2019-01-11T22:15:40.550Z,1.09
2019-01-11T22:18:09.937Z,1.05
2019-01-11T22:20:39.415Z,1.02
2019-01-11T22:23:08.817Z,0.98
2019-01-11T22:25:38.778Z,0.99
2019-01-11T22:28:08.399Z,0.96
2019-01-11T22:30:37.921Z,1.00
2019-01-11T22:33:07.483Z,1.04
2019-01-11T22:35:37.383Z,1.11
2019-01-11T22:38:06.846Z,1.10
2019-01-11T22:40:36.305Z,1.01
2019-01-11T22:43:05.856Z,1.01
2019-01-11T22:45:35.445Z,1.02
2019-01-11T22:48:04.841Z,1.04
2019-01-11T22:50:34.247Z,1.02
2019-01-11T22:53:03.709Z,0.99
2019-01-11T22:55:33.249Z,0.95
2019-01-11T22:58:03.785Z,0.98
2019-01-11T23:01:12.782Z,1.00
2019-01-11T23:03:45.706Z,0.92
2019-01-11T23:07:05.073Z,0.88
2019-01-11T23:10:02.994Z,0.96
2019-01-11T23:12:42.436Z,0.86
2019-01-11T23:15:24.840Z,0.88
2019-01-11T23:18:03.946Z,0.88
2019-01-11T23:20:33.784Z,0.83
2019-01-11T23:23:03.515Z,0.75
2019-01-11T23:25:33.014Z,0.71
2019-01-11T23:28:02.488Z,0.67
2019-01-11T23:30:32.041Z,0.66
2019-01-11T23:33:01.451Z,0.69
2019-01-11T23:35:31.040Z,0.69
2019-01-11T23:38:00.437Z,0.73
2019-01-11T23:40:29.961Z,0.75
2019-01-11T23:42:59.578Z,0.67
2019-01-11T23:45:29.080Z,0.64
2019-01-11T23:47:58.531Z,0.62
2019-01-11T23:50:28.103Z,0.57
2019-01-11T23:52:57.531Z,0.60
2019-01-11T23:55:27.977Z,0.58
2019-01-11T23:57:57.350Z,0.62
